Time;durP1;ratioP1;P1;durP2;ratioP2;P2;SDS_P1;SDS_P2;PMS_P1;PMS_P2;Temp;Humidity;BMP_temperature;BMP_pressure;BME280_temperature;BME280_humidity;BME280_pressure;Samples;Min_cycle;Max_cycle;Signal;HPM_P1;HPM_P2
2023/06/08 00:00:00;;;;;;;14.93;5.50;;;;;;;13.25;77.24;101327.94;4952354;29;20046;-44
2023/06/08 00:02:28;;;;;;;17.02;5.25;;;;;;;13.27;77.67;101327.59;4950319;28;20051;-46
2023/06/08 00:04:57;;;;;;;16.48;5.97;;;;;;;13.27;77.58;101324.81;4951400;29;20047;-53
2023/06/08 00:07:24;;;;;;;8.60;5.13;;;;;;;13.26;77.54;101325.97;4951448;29;20089;-44
2023/06/08 00:09:51;;;;;;;11.02;5.35;;;;;;;13.27;77.76;101330.38;4951019;29;20055;-45
2023/06/08 00:12:18;;;;;;;10.82;5.80;;;;;;;13.25;78.02;101316.00;4950888;29;20114;-45
2023/06/08 00:14:45;;;;;;;9.30;5.78;;;;;;;13.25;78.12;101322.38;4951158;28;20367;-44
2023/06/08 00:17:13;;;;;;;18.08;6.00;;;;;;;13.25;78.28;101316.00;4951532;29;20109;-45
2023/06/08 00:19:42;;;;;;;10.05;6.18;;;;;;;13.23;78.42;101327.50;4951552;29;20110;-45
2023/06/08 00:22:12;;;;;;;14.02;6.38;;;;;;;13.24;78.65;101326.31;4950640;29;20106;-44
2023/06/08 00:24:40;;;;;;;11.77;6.18;;;;;;;13.25;78.55;101322.38;4949474;29;20098;-45
2023/06/08 00:27:08;;;;;;;13.68;5.70;;;;;;;13.24;78.93;101315.19;4951190;29;20059;-44
2023/06/08 00:29:35;;;;;;;10.93;6.57;;;;;;;13.23;78.61;101321.13;4951278;29;20079;-44
2023/06/08 00:32:02;;;;;;;11.82;5.88;;;;;;;13.21;78.74;101315.09;4949767;29;20070;-44
2023/06/08 00:34:30;;;;;;;11.73;6.65;;;;;;;13.20;78.97;101316.25;4938508;29;20043;-43
2023/06/08 00:36:57;;;;;;;13.85;6.22;;;;;;;13.18;79.30;101311.06;4950935;29;20058;-45
2023/06/08 00:39:24;;;;;;;19.73;6.47;;;;;;;13.21;79.18;101312.31;4951210;29;20110;-45
2023/06/08 00:41:51;;;;;;;14.63;6.60;;;;;;;13.19;79.49;101315.44;4947682;29;20107;-45
2023/06/08 00:44:17;;;;;;;20.27;7.75;;;;;;;13.19;79.63;101311.84;4951052;29;20074;-44
2023/06/08 00:46:45;;;;;;;13.70;6.22;;;;;;;13.18;79.66;101313.00;4950956;29;20047;-49
2023/06/08 00:49:17;;;;;;;13.35;5.97;;;;;;;13.16;79.80;101310.56;4951120;29;20051;-44
2023/06/08 00:51:45;;;;;;;21.63;7.18;;;;;;;13.15;79.94;101308.16;4949775;29;20047;-46
2023/06/08 00:54:14;;;;;;;12.07;6.63;;;;;;;13.16;80.00;101306.97;4946783;28;20054;-44
2023/06/08 00:56:48;;;;;;;18.98;8.07;;;;;;;13.14;80.30;101309.28;4953295;28;20055;-44
2023/06/08 00:59:16;;;;;;;19.70;8.05;;;;;;;13.12;80.25;101306.06;4955484;28;20042;-44
2023/06/08 01:01:44;;;;;;;17.08;6.53;;;;;;;13.12;80.41;101306.88;4951524;28;20134;-44
2023/06/08 01:04:14;;;;;;;19.90;7.40;;;;;;;13.13;80.22;101305.69;4950544;29;20473;-45
2023/06/08 01:06:46;;;;;;;11.27;7.40;;;;;;;13.14;80.33;101309.28;4951106;29;20168;-44
2023/06/08 01:09:27;;;;;;;12.43;7.28;;;;;;;13.11;80.56;101308.03;4951093;29;20105;-44
2023/06/08 01:12:25;;;;;;;14.05;7.68;;;;;;;13.11;80.66;101307.19;4951419;28;20043;-44
2023/06/08 01:15:23;;;;;;;14.60;8.10;;;;;;;13.09;80.51;101315.91;4950476;28;20055;-46
2023/06/08 01:17:57;;;;;;;15.60;7.55;;;;;;;13.09;80.04;101312.31;4950425;28;20047;-44
2023/06/08 01:20:34;;;;;;;12.77;7.13;;;;;;;13.06;80.50;101307.41;4950619;29;20048;-46
2023/06/08 01:23:22;;;;;;;16.48;7.20;;;;;;;13.04;80.62;101304.19;4948935;29;20047;-44
2023/06/08 01:25:52;;;;;;;16.27;7.90;;;;;;;13.02;80.53;101314.84;4950273;29;20051;-44
2023/06/08 01:28:20;;;;;;;18.98;7.93;;;;;;;13.01;80.69;101315.97;4950551;29;20106;-44
2023/06/08 01:30:49;;;;;;;18.40;7.70;;;;;;;12.98;80.58;101313.91;4950454;29;20569;-44
2023/06/08 01:33:18;;;;;;;15.52;8.43;;;;;;;12.96;80.78;101308.69;4942909;29;20072;-44
2023/06/08 01:36:25;;;;;;;16.00;9.30;;;;;;;12.95;80.60;101306.25;4946616;29;20047;-44
2023/06/08 01:39:37;;;;;;;21.58;9.55;;;;;;;12.93;80.98;101303.00;4910092;29;20060;-44
2023/06/08 01:42:07;;;;;;;15.52;7.40;;;;;;;12.91;80.92;101299.78;4945588;29;20043;-44
2023/06/08 01:44:38;;;;;;;19.17;9.40;;;;;;;12.87;80.91;101304.44;4950587;29;20098;-44
2023/06/08 01:47:06;;;;;;;15.02;7.35;;;;;;;12.83;81.03;101299.56;4950070;29;20102;-45
2023/06/08 01:49:34;;;;;;;26.00;9.15;;;;;;;12.82;81.17;101303.47;4949417;29;20047;-44
2023/06/08 01:52:02;;;;;;;18.88;7.35;;;;;;;12.81;81.23;101307.41;4949054;29;20054;-44
2023/06/08 01:54:29;;;;;;;20.15;9.50;;;;;;;12.83;81.27;101299.56;4949129;29;20498;-45
2023/06/08 01:56:56;;;;;;;15.85;8.07;;;;;;;12.81;81.22;101296.28;4933104;29;20090;-44
2023/06/08 01:59:23;;;;;;;21.33;8.88;;;;;;;12.80;81.36;101297.47;4950506;29;20047;-44
2023/06/08 02:01:49;;;;;;;23.17;9.63;;;;;;;12.79;81.76;101301.38;4949952;28;20087;-45
2023/06/08 02:04:16;;;;;;;15.13;7.40;;;;;;;12.79;81.64;101309.72;4949232;28;20039;-44
2023/06/08 02:06:43;;;;;;;18.80;7.63;;;;;;;12.77;81.80;101311.22;4949129;28;20055;-49
2023/06/08 02:09:10;;;;;;;24.17;7.88;;;;;;;12.74;81.89;101307.19;4949049;29;20507;-44
2023/06/08 02:11:37;;;;;;;17.20;7.20;;;;;;;12.71;82.04;101296.75;4950006;29;20138;-44
2023/06/08 02:14:04;;;;;;;17.90;6.68;;;;;;;12.72;81.95;101303.94;4950705;29;20062;-51
2023/06/08 02:16:33;;;;;;;12.75;6.18;;;;;;;12.69;81.83;101306.59;4949978;28;20047;-45
2023/06/08 02:19:01;;;;;;;20.33;6.00;;;;;;;12.66;82.09;101305.31;4949272;29;20047;-44
2023/06/08 02:21:28;;;;;;;20.50;6.20;;;;;;;12.65;82.16;101303.72;4950180;29;20093;-44
2023/06/08 02:23:54;;;;;;;13.57;5.93;;;;;;;12.63;82.22;101308.78;4949677;28;20039;-45
2023/06/08 02:26:22;;;;;;;13.55;5.90;;;;;;;12.61;82.29;101307.50;4953192;28;20054;-44
2023/06/08 02:28:49;;;;;;;15.20;5.07;;;;;;;12.60;82.44;101303.91;4952026;28;20138;-44
2023/06/08 02:31:16;;;;;;;13.70;6.03;;;;;;;12.60;82.42;101303.91;4953727;29;20067;-55
2023/06/08 02:33:43;;;;;;;18.33;6.05;;;;;;;12.58;82.36;101310.97;4953742;29;20473;-44
2023/06/08 02:36:10;;;;;;;15.63;5.53;;;;;;;12.57;82.38;101310.19;4953183;29;20458;-44
2023/06/08 02:38:37;;;;;;;18.65;6.53;;;;;;;12.55;82.21;101298.59;4953170;28;20061;-44
2023/06/08 02:41:06;;;;;;;20.80;6.55;;;;;;;12.52;82.52;101301.25;4952002;29;20462;-44
2023/06/08 02:43:33;;;;;;;13.10;4.70;;;;;;;12.49;82.62;101291.66;4953258;29;20050;-46
2023/06/08 02:46:00;;;;;;;23.20;5.85;;;;;;;12.46;82.67;101292.34;4953174;29;20044;-46
2023/06/08 02:48:27;;;;;;;20.75;6.40;;;;;;;12.44;82.77;101291.06;4952890;29;20476;-44
2023/06/08 02:50:53;;;;;;;24.50;6.10;;;;;;;12.41;83.13;101298.13;4950153;29;20043;-44
2023/06/08 02:53:20;;;;;;;12.32;5.25;;;;;;;12.39;83.14;101297.63;4952123;29;20047;-45
2023/06/08 02:55:50;;;;;;;18.73;7.57;;;;;;;12.38;82.90;101298.81;4952945;29;20738;-44
2023/06/08 02:58:18;;;;;;;17.20;5.63;;;;;;;12.36;83.21;101298.34;4934829;29;20263;-45
2023/06/08 03:00:44;;;;;;;16.67;7.20;;;;;;;12.35;83.07;101293.94;4982247;23;20055;-49
2023/06/08 03:03:12;;;;;;;11.25;5.07;;;;;;;12.33;82.96;101290.69;4949750;28;20500;-45
2023/06/08 03:05:40;;;;;;;17.98;5.05;;;;;;;12.32;83.16;101293.78;4952790;29;20047;-44
2023/06/08 03:08:07;;;;;;;15.88;5.75;;;;;;;12.29;83.17;101292.50;4952881;29;20043;-51
2023/06/08 03:10:34;;;;;;;19.35;5.63;;;;;;;12.29;83.42;101289.75;4951842;29;20592;-44
2023/06/08 03:13:01;;;;;;;18.92;5.28;;;;;;;12.27;83.33;101286.50;4952789;28;20054;-44
2023/06/08 03:15:30;;;;;;;22.38;6.45;;;;;;;12.25;83.59;101283.28;4951909;29;20098;-48
2023/06/08 03:17:57;;;;;;;13.43;5.80;;;;;;;12.25;83.62;101285.22;4952518;28;20660;-44
2023/06/08 03:20:24;;;;;;;25.08;6.90;;;;;;;12.25;83.44;101297.16;4951974;29;20106;-45
2023/06/08 03:22:51;;;;;;;13.80;4.75;;;;;;;12.24;83.74;101298.28;4952772;28;20094;-44
2023/06/08 03:25:21;;;;;;;20.13;5.20;;;;;;;12.23;83.67;101291.13;4952685;29;20062;-43
2023/06/08 03:27:48;;;;;;;21.25;5.47;;;;;;;12.21;83.61;101291.47;4952764;29;20032;-44
2023/06/08 03:30:15;;;;;;;14.02;4.95;;;;;;;12.19;83.62;101295.75;4950397;28;20051;-45
2023/06/08 03:32:48;;;;;;;14.48;5.00;;;;;;;12.17;83.98;101284.16;4951598;29;20102;-46
2023/06/08 03:35:16;;;;;;;23.67;6.18;;;;;;;12.12;83.97;101279.66;4951589;28;20134;-47
2023/06/08 03:37:43;;;;;;;17.48;6.07;;;;;;;12.09;83.96;101277.56;4940010;29;20433;-44
2023/06/08 03:40:10;;;;;;;13.73;5.78;;;;;;;12.08;83.86;101286.22;4951251;29;20468;-48
2023/06/08 03:42:38;;;;;;;13.25;4.63;;;;;;;12.06;83.93;101282.97;4940068;29;20043;-44
2023/06/08 03:45:05;;;;;;;14.63;5.15;;;;;;;12.06;84.06;101280.19;4951829;29;20297;-48
2023/06/08 03:47:33;;;;;;;10.27;4.97;;;;;;;12.02;84.22;101282.06;4952076;29;20062;-44
2023/06/08 03:50:00;;;;;;;25.33;7.40;;;;;;;12.02;84.22;101279.28;4932860;29;20062;-45
2023/06/08 03:52:27;;;;;;;22.10;6.18;;;;;;;12.00;84.16;101276.81;4952126;29;20065;-44
2023/06/08 03:54:53;;;;;;;15.48;5.38;;;;;;;12.00;84.17;101292.66;4951606;28;20051;-44
2023/06/08 03:57:20;;;;;;;17.15;5.32;;;;;;;11.99;83.97;101285.50;4951819;29;20481;-45
2023/06/08 03:59:47;;;;;;;16.67;5.38;;;;;;;11.96;84.07;101280.63;4950666;28;20062;-44
2023/06/08 04:02:14;;;;;;;14.00;5.18;;;;;;;11.95;84.21;101279.00;4951817;28;20055;-44
2023/06/08 04:04:44;;;;;;;16.13;5.22;;;;;;;11.93;84.23;101287.69;4951586;28;20142;-44
2023/06/08 04:07:11;;;;;;;11.57;5.00;;;;;;;11.95;84.39;101279.00;4950877;29;20122;-43
2023/06/08 04:09:38;;;;;;;14.27;5.38;;;;;;;11.94;84.32;101272.63;4946935;29;20517;-45
2023/06/08 04:12:06;;;;;;;15.43;5.13;;;;;;;11.95;84.38;101284.56;4934639;29;20047;-43
2023/06/08 04:14:33;;;;;;;12.60;4.82;;;;;;;11.93;84.43;101278.53;4951519;29;20051;-44
2023/06/08 04:17:00;;;;;;;18.60;5.10;;;;;;;11.95;84.43;101279.81;4951728;28;20114;-43
2023/06/08 04:19:27;;;;;;;14.00;4.95;;;;;;;11.96;84.37;101280.63;4950457;29;20058;-44
2023/06/08 04:21:56;;;;;;;15.32;5.35;;;;;;;11.96;84.45;101283.41;4950601;29;20046;-45
2023/06/08 04:24:24;;;;;;;10.68;5.28;;;;;;;11.95;84.40;101279.00;4950324;28;20050;-45
2023/06/08 04:26:51;;;;;;;19.52;5.32;;;;;;;11.95;84.37;101274.25;4951497;28;20651;-44
2023/06/08 04:29:18;;;;;;;13.02;4.80;;;;;;;11.97;84.39;101282.25;4950968;29;20054;-46
2023/06/08 04:31:45;;;;;;;21.17;5.57;;;;;;;11.96;84.47;101275.91;4948482;28;20047;-43
2023/06/08 04:34:12;;;;;;;16.30;5.95;;;;;;;11.98;84.54;101272.78;4934058;29;20442;-43
2023/06/08 04:36:42;;;;;;;17.33;5.40;;;;;;;11.98;84.53;101283.88;4934530;29;20051;-43
2023/06/08 04:39:09;;;;;;;20.70;5.43;;;;;;;12.00;84.68;101284.34;4951255;29;20035;-45
2023/06/08 04:41:36;;;;;;;14.07;5.78;;;;;;;12.01;84.62;101280.41;4932181;29;20058;-44
2023/06/08 04:44:03;;;;;;;17.35;5.70;;;;;;;12.00;84.64;101279.59;4951264;29;20402;-44
2023/06/08 04:46:33;;;;;;;14.63;5.18;;;;;;;12.02;84.71;101274.50;4951111;28;20055;-44
2023/06/08 04:49:00;;;;;;;18.25;6.03;;;;;;;12.04;84.64;101275.00;4950455;29;20492;-45
2023/06/08 04:51:29;;;;;;;20.88;5.95;;;;;;;12.05;85.08;101273.00;4933709;29;20047;-45
2023/06/08 04:54:01;;;;;;;15.25;7.20;;;;;;;12.09;84.92;101273.97;4942111;29;20073;-43
2023/06/08 04:56:29;;;;;;;14.20;7.15;;;;;;;12.07;84.99;101271.53;4950346;29;20047;-49
2023/06/08 04:58:57;;;;;;;17.10;5.60;;;;;;;12.07;84.82;101276.28;4939738;29;20047;-43
2023/06/08 05:01:24;;;;;;;13.63;4.97;;;;;;;12.06;85.08;101274.66;4950222;29;20394;-44
2023/06/08 05:03:51;;;;;;;15.77;5.90;;;;;;;12.10;85.10;101275.56;4951199;28;20039;-43
2023/06/08 05:06:18;;;;;;;10.82;5.05;;;;;;;12.13;84.74;101274.88;4950614;28;20043;-44
2023/06/08 05:08:45;;;;;;;16.75;5.45;;;;;;;12.16;85.13;101279.75;4914791;29;20430;-44
2023/06/08 05:11:12;;;;;;;18.55;5.50;;;;;;;12.20;85.14;101277.94;4946123;28;20472;-44
2023/06/08 05:13:39;;;;;;;20.38;6.85;;;;;;;12.24;85.25;101276.09;4950121;29;20094;-44
2023/06/08 05:16:06;;;;;;;10.95;5.07;;;;;;;12.28;85.01;101277.03;4950336;28;21068;-45
2023/06/08 05:18:32;;;;;;;14.88;4.95;;;;;;;12.30;85.03;101274.72;4950599;28;20051;-43
2023/06/08 05:20:59;;;;;;;13.05;5.13;;;;;;;12.32;85.02;101272.41;4949555;29;20071;-44
2023/06/08 05:23:26;;;;;;;20.55;7.85;;;;;;;12.34;85.10;101267.31;4950845;28;20090;-49
2023/06/08 05:25:53;;;;;;;19.38;6.15;;;;;;;12.36;84.97;101270.56;4950423;28;20497;-44
2023/06/08 05:28:19;;;;;;;15.80;6.07;;;;;;;12.40;85.02;101270.69;4950572;29;20051;-45
2023/06/08 05:30:46;;;;;;;19.17;5.50;;;;;;;12.44;85.04;101269.66;4947190;29;20834;-44
2023/06/08 05:33:13;;;;;;;13.20;5.70;;;;;;;12.49;84.91;101266.66;4940138;29;20051;-45
2023/06/08 05:35:40;;;;;;;16.67;5.82;;;;;;;12.53;84.89;101275.91;4950536;28;20175;-43
2023/06/08 05:38:07;;;;;;;15.40;7.20;;;;;;;12.54;84.73;101269.22;4950629;28;20058;-44
2023/06/08 05:40:34;;;;;;;16.10;6.03;;;;;;;12.54;84.84;101276.72;4949442;28;20102;-44
2023/06/08 05:43:01;;;;;;;16.70;5.55;;;;;;;12.57;84.72;101279.63;4950588;29;20047;-45
2023/06/08 05:45:28;;;;;;;22.88;6.78;;;;;;;12.59;84.54;101282.88;4950244;29;20054;-45
2023/06/08 05:47:55;;;;;;;19.50;5.95;;;;;;;12.63;84.56;101281.00;4946489;28;20142;-45
2023/06/08 05:50:22;;;;;;;12.95;5.60;;;;;;;12.71;84.48;101276.50;4946023;28;20560;-50
2023/06/08 05:52:49;;;;;;;18.00;5.63;;;;;;;12.77;84.20;101281.47;4950474;29;20094;-45
2023/06/08 05:55:16;;;;;;;8.85;5.35;;;;;;;12.81;84.11;101271.28;4950296;29;20117;-44
2023/06/08 05:57:43;;;;;;;14.52;6.18;;;;;;;12.84;83.97;101267.81;4947992;29;20051;-44
2023/06/08 06:00:12;;;;;;;17.65;6.30;;;;;;;12.86;83.82;101275.00;4935570;29;20046;-47
2023/06/08 06:02:40;;;;;;;19.67;6.22;;;;;;;12.89;83.71;101277.09;4953973;29;20079;-44
2023/06/08 06:05:08;;;;;;;13.27;5.80;;;;;;;12.93;83.82;101280.78;4953027;29;20057;-44
2023/06/08 06:07:36;;;;;;;18.05;7.07;;;;;;;12.94;83.76;101287.97;4952905;29;20050;-46
2023/06/08 06:10:04;;;;;;;13.40;5.78;;;;;;;12.95;83.50;101281.25;4954109;28;20039;-46
2023/06/08 06:12:32;;;;;;;14.57;5.38;;;;;;;12.94;83.60;101287.97;4953762;29;20055;-44
2023/06/08 06:14:59;;;;;;;12.82;5.78;;;;;;;12.96;83.40;101291.22;4952495;29;20075;-44
2023/06/08 06:17:26;;;;;;;16.50;6.15;;;;;;;12.99;83.50;101294.09;4953073;29;20126;-45
2023/06/08 06:19:53;;;;;;;14.88;5.78;;;;;;;13.07;83.52;101284.06;4953857;29;20039;-45
2023/06/08 06:22:20;;;;;;;22.75;6.78;;;;;;;13.17;83.18;101289.13;4952752;29;20792;-44
2023/06/08 06:24:46;;;;;;;13.80;6.20;;;;;;;13.25;83.19;101288.19;4947621;29;20050;-43
2023/06/08 06:27:13;;;;;;;11.77;5.97;;;;;;;13.24;82.77;101289.34;4951380;28;20078;-46
2023/06/08 06:29:40;;;;;;;17.95;7.22;;;;;;;13.15;82.57;101283.94;4953029;29;20058;-45
2023/06/08 06:32:07;;;;;;;8.98;5.50;;;;;;;13.15;82.49;101288.69;4952752;29;20472;-44
2023/06/08 06:34:35;;;;;;;15.27;5.93;;;;;;;13.13;82.46;101282.66;4953334;28;20039;-44
2023/06/08 06:37:02;;;;;;;10.68;5.57;;;;;;;13.13;82.51;101291.00;4951970;29;20047;-44
2023/06/08 06:39:29;;;;;;;14.25;5.53;;;;;;;13.13;82.05;101285.44;4951966;29;20054;-45
2023/06/08 06:41:56;;;;;;;13.45;6.00;;;;;;;13.10;82.01;101275.03;4934047;29;20047;-50
2023/06/08 06:44:23;;;;;;;14.80;6.07;;;;;;;13.08;82.01;101288.47;4953244;29;20375;-44
2023/06/08 06:46:50;;;;;;;25.83;6.53;;;;;;;13.10;82.07;101286.16;4952326;28;20075;-44
2023/06/08 06:49:17;;;;;;;10.43;6.65;;;;;;;13.14;81.77;101289.84;4953342;29;20047;-44
2023/06/08 06:51:44;;;;;;;11.38;7.57;;;;;;;13.12;81.56;101276.28;4953113;28;20051;-44
2023/06/08 06:54:10;;;;;;;11.15;5.78;;;;;;;13.14;81.60;101281.50;4951673;28;20043;-44
2023/06/08 06:56:37;;;;;;;15.05;6.03;;;;;;;13.20;81.78;101288.44;4951307;29;20051;-44
2023/06/08 06:59:05;;;;;;;12.68;5.60;;;;;;;13.29;81.67;101289.13;4952773;29;20083;-44
2023/06/08 07:01:35;;;;;;;15.32;5.65;;;;;;;13.31;81.06;101284.03;4953386;29;20102;-45
2023/06/08 07:04:04;;;;;;;14.93;5.88;;;;;;;13.35;81.11;101298.84;4952097;28;20485;-43
2023/06/08 07:06:31;;;;;;;14.50;6.10;;;;;;;13.42;81.11;101299.88;4951359;29;20134;-47
2023/06/08 07:08:58;;;;;;;10.73;5.63;;;;;;;13.40;80.70;101302.19;4952415;28;20046;-45
2023/06/08 07:11:26;;;;;;;9.20;5.75;;;;;;;13.40;80.71;101307.75;4935218;29;20051;-43
2023/06/08 07:13:53;;;;;;;15.07;6.07;;;;;;;13.33;80.37;101301.16;4947939;28;20043;-46
2023/06/08 07:16:21;;;;;;;15.02;6.00;;;;;;;13.32;80.49;101299.53;4947013;28;20497;-44
2023/06/08 07:18:53;;;;;;;12.80;6.07;;;;;;;13.33;80.41;101299.19;4951944;29;20493;-43
2023/06/08 07:21:21;;;;;;;9.68;5.10;;;;;;;13.33;80.24;101295.59;4952654;29;20122;-42
2023/06/08 07:23:52;;;;;;;13.23;5.28;;;;;;;13.31;79.95;101298.75;4952152;28;20445;-47
2023/06/08 07:26:40;;;;;;;13.55;5.68;;;;;;;13.42;79.90;101304.63;4928145;29;20141;-45
2023/06/08 07:29:08;;;;;;;14.00;5.32;;;;;;;13.40;79.36;101310.53;4949064;29;20445;-44
2023/06/08 07:31:38;;;;;;;8.35;5.22;;;;;;;13.42;79.52;101310.19;4949888;28;20043;-44
2023/06/08 07:34:06;;;;;;;14.82;6.82;;;;;;;13.39;79.17;101322.03;4935244;29;20054;-45
2023/06/08 07:36:35;;;;;;;15.98;6.82;;;;;;;13.36;79.22;101312.41;4927382;28;20050;-44
2023/06/08 07:39:03;;;;;;;11.98;6.88;;;;;;;13.42;79.08;101322.13;4951602;28;20047;-47
2023/06/08 07:41:31;;;;;;;14.95;8.07;;;;;;;13.39;78.86;101316.47;4951894;28;20058;-45
2023/06/08 07:44:02;;;;;;;13.93;7.15;;;;;;;13.36;78.58;101319.94;4952217;28;20054;-44
2023/06/08 07:46:29;;;;;;;14.05;6.65;;;;;;;13.43;78.79;101318.19;4951634;29;20051;-45
2023/06/08 07:48:56;;;;;;;14.70;6.65;;;;;;;13.56;78.65;101310.63;4950770;29;20565;-44
2023/06/08 07:51:23;;;;;;;13.88;7.47;;;;;;;13.65;78.19;101302.94;4951339;29;20039;-44
2023/06/08 07:53:50;;;;;;;12.30;6.18;;;;;;;13.83;78.64;101312.63;4952285;29;20134;-44
2023/06/08 07:56:18;;;;;;;13.75;6.63;;;;;;;14.08;78.22;101312.53;4951913;29;20082;-44
2023/06/08 07:58:45;;;;;;;16.90;7.00;;;;;;;14.22;77.98;101310.13;4939340;29;20047;-44
2023/06/08 08:01:11;;;;;;;11.23;6.35;;;;;;;14.61;78.11;101295.31;4950998;29;20043;-43
2023/06/08 08:03:38;;;;;;;12.88;5.35;;;;;;;14.71;77.32;101299.53;4951236;29;20118;-45
2023/06/08 08:06:07;;;;;;;12.43;6.28;;;;;;;14.60;76.91;101300.06;4949254;29;20501;-44
2023/06/08 08:08:34;;;;;;;16.00;6.05;;;;;;;14.58;76.68;101296.03;4950541;29;20047;-50
2023/06/08 08:11:01;;;;;;;14.30;6.85;;;;;;;14.50;76.33;101305.38;4950930;28;20506;-44
2023/06/08 08:13:28;;;;;;;17.92;7.10;;;;;;;14.40;76.07;101300.31;4934068;29;20086;-49
2023/06/08 08:16:39;;;;;;;7.78;4.95;;;;;;;14.31;75.91;101292.13;4932357;29;20209;-44
2023/06/08 08:19:06;;;;;;;10.48;5.68;;;;;;;14.40;75.68;101303.13;4951047;29;20074;-44
2023/06/08 08:21:33;;;;;;;11.68;5.30;;;;;;;14.38;75.35;101299.84;4944030;29;20044;-44
2023/06/08 08:24:01;;;;;;;11.85;6.15;;;;;;;14.32;74.91;101298.53;4932792;29;20054;-44
2023/06/08 08:26:28;;;;;;;9.68;4.97;;;;;;;14.31;75.03;101296.84;4934863;29;20111;-45
2023/06/08 08:28:56;;;;;;;10.15;4.78;;;;;;;14.38;75.56;101297.06;4917602;29;20063;-45
2023/06/08 08:31:24;;;;;;;6.55;5.03;;;;;;;14.74;74.81;101301.59;4952624;29;20066;-45
2023/06/08 08:33:51;;;;;;;10.57;4.68;;;;;;;14.72;74.31;101293.59;4953860;29;20883;-44
2023/06/08 08:36:18;;;;;;;12.38;5.75;;;;;;;14.80;74.27;101302.97;4953517;29;20432;-48
2023/06/08 08:38:44;;;;;;;12.20;5.25;;;;;;;15.35;74.23;101307.47;4943429;29;20040;-44
2023/06/08 08:41:12;;;;;;;12.32;5.00;;;;;;;15.45;72.53;101318.06;4950327;29;20651;-45
2023/06/08 08:43:50;;;;;;;8.75;5.55;;;;;;;15.20;72.01;101311.88;4953754;29;20611;-44
2023/06/08 08:46:21;;;;;;;10.10;5.80;;;;;;;15.12;72.32;101313.72;4936490;29;20050;-46
2023/06/08 08:48:50;;;;;;;14.57;7.57;;;;;;;14.94;72.10;101318.03;4953591;29;20047;-44
2023/06/08 08:51:18;;;;;;;13.02;6.50;;;;;;;14.89;72.43;101301.59;4935700;29;20050;-44
2023/06/08 08:53:50;;;;;;;10.32;6.65;;;;;;;15.07;72.16;101305.63;4953594;29;20505;-45
2023/06/08 08:56:20;;;;;;;7.57;5.53;;;;;;;15.22;71.57;101310.34;4937979;29;20039;-44
2023/06/08 08:58:48;;;;;;;13.25;7.22;;;;;;;15.07;71.04;101300.03;4943219;29;20047;-46
2023/06/08 09:01:16;;;;;;;14.00;7.82;;;;;;;14.82;71.11;101301.44;4953019;29;20506;-45
2023/06/08 09:03:43;;;;;;;18.65;8.38;;;;;;;14.62;71.57;101306.09;4953547;29;20055;-47
2023/06/08 09:06:09;;;;;;;13.50;7.85;;;;;;;14.45;71.58;101308.41;4953498;29;20032;-47
2023/06/08 09:08:36;;;;;;;14.45;8.52;;;;;;;14.30;71.76;101311.94;4951872;29;20090;-45
2023/06/08 09:11:09;;;;;;;10.23;7.93;;;;;;;14.19;71.89;101308.84;4952808;29;20467;-44
2023/06/08 09:13:38;;;;;;;13.98;7.97;;;;;;;14.23;71.95;101303.41;4936489;29;20142;-44
2023/06/08 09:16:09;;;;;;;13.23;9.48;;;;;;;14.28;72.04;101308.72;4934416;29;20047;-43
2023/06/08 09:18:36;;;;;;;12.50;8.75;;;;;;;14.27;71.60;101301.53;4939930;29;20129;-44
2023/06/08 09:21:27;;;;;;;14.23;8.63;;;;;;;14.13;71.79;101301.13;4953305;29;20081;-44
2023/06/08 09:24:22;;;;;;;16.08;8.85;;;;;;;14.09;72.05;101295.47;4943918;29;20429;-45
2023/06/08 09:26:51;;;;;;;19.45;8.57;;;;;;;14.06;71.97;101296.16;4953142;29;20436;-44
2023/06/08 09:29:35;;;;;;;14.40;8.20;;;;;;;14.01;72.05;101293.63;4949996;29;20094;-44
2023/06/08 09:32:03;;;;;;;15.77;8.00;;;;;;;13.96;71.95;101291.94;4953066;29;20047;-44
2023/06/08 09:34:33;;;;;;;12.85;8.75;;;;;;;14.02;72.02;101282.16;4938241;29;20047;-46
2023/06/08 09:37:08;;;;;;;15.40;8.50;;;;;;;14.17;71.66;101293.69;4957446;29;20134;-44
2023/06/08 09:39:43;;;;;;;14.32;8.93;;;;;;;14.17;71.54;101283.34;4955622;29;20105;-46
2023/06/08 09:42:11;;;;;;;14.00;8.70;;;;;;;14.09;71.49;101277.94;4923959;29;20119;-44
2023/06/08 09:44:38;;;;;;;12.45;9.05;;;;;;;14.23;71.76;101289.47;4939574;29;20058;-46
2023/06/08 09:47:25;;;;;;;13.25;9.25;;;;;;;14.30;71.30;101284.09;4926410;28;20079;-45
2023/06/08 09:49:54;;;;;;;12.48;8.77;;;;;;;14.38;71.30;101280.34;4944951;29;20058;-44
2023/06/08 09:52:23;;;;;;;13.95;9.27;;;;;;;14.48;71.05;101282.63;4950783;29;20083;-44
2023/06/08 09:54:51;;;;;;;20.88;9.52;;;;;;;14.57;70.98;101283.25;4956463;29;20066;-46
2023/06/08 09:57:21;;;;;;;14.40;9.25;;;;;;;14.57;70.80;101289.63;4956319;29;20102;-45
2023/06/08 10:00:14;;;;;;;15.48;10.73;;;;;;;14.64;70.71;101289.81;4954782;29;20136;-46
2023/06/08 10:02:42;;;;;;;13.70;9.30;;;;;;;14.65;70.63;101285.06;4955314;29;20078;-45
2023/06/08 10:05:13;;;;;;;15.07;10.27;;;;;;;14.69;70.68;101285.16;4956350;29;20512;-45
2023/06/08 10:07:45;;;;;;;14.80;10.15;;;;;;;14.70;70.55;101282.00;4955305;29;20039;-44
2023/06/08 10:10:25;;;;;;;12.50;9.50;;;;;;;14.77;70.33;101282.19;4955937;29;20059;-46
2023/06/08 10:12:52;;;;;;;14.75;10.55;;;;;;;14.88;70.25;101268.50;4956302;29;20058;-47
2023/06/08 10:15:21;;;;;;;15.77;10.40;;;;;;;14.89;70.22;101267.31;4956132;29;20043;-44
2023/06/08 10:17:50;;;;;;;14.32;9.18;;;;;;;14.91;70.15;101276.94;4954620;29;20043;-44
2023/06/08 10:20:17;;;;;;;14.50;9.02;;;;;;;14.93;69.75;101257.09;4955162;28;20580;-44
2023/06/08 10:22:45;;;;;;;15.98;8.70;;;;;;;14.95;69.44;101263.09;4955938;29;20051;-44
2023/06/08 10:25:13;;;;;;;11.80;8.10;;;;;;;15.02;69.50;101261.28;4956068;29;20102;-46
2023/06/08 10:27:51;;;;;;;19.63;8.70;;;;;;;15.01;69.28;101259.66;4937149;29;20129;-45
2023/06/08 10:30:40;;;;;;;8.90;7.30;;;;;;;14.99;69.18;101253.63;4956000;29;20050;-46
2023/06/08 10:33:22;;;;;;;12.23;6.38;;;;;;;14.97;69.01;101244.03;4939715;29;20043;-43
2023/06/08 10:36:10;;;;;;;36.42;9.57;;;;;;;14.93;68.29;101246.72;4939162;29;20055;-44
2023/06/08 10:38:57;;;;;;;14.55;8.55;;;;;;;14.93;68.56;101248.72;4954496;29;20058;-44
2023/06/08 10:41:53;;;;;;;13.20;7.20;;;;;;;15.00;68.17;101248.88;4952213;29;20090;-44
2023/06/08 10:44:33;;;;;;;10.45;6.40;;;;;;;14.95;68.14;101249.97;4955913;28;20055;-45
2023/06/08 10:47:06;;;;;;;11.80;6.47;;;;;;;14.94;67.85;101245.56;4955208;29;20082;-46
2023/06/08 10:49:35;;;;;;;13.45;6.80;;;;;;;14.82;67.96;101245.69;4958445;28;20556;-44
2023/06/08 10:52:06;;;;;;;15.00;6.85;;;;;;;14.78;67.93;101255.91;4955456;29;20054;-45
2023/06/08 10:55:08;;;;;;;10.77;7.43;;;;;;;14.73;68.24;101250.63;4946746;29;20059;-44
2023/06/08 10:57:49;;;;;;;15.43;8.30;;;;;;;14.67;68.26;101254.84;4923288;29;20051;-45
2023/06/08 11:00:26;;;;;;;13.75;7.63;;;;;;;14.67;68.27;101249.25;4950956;29;20047;-44
2023/06/08 11:03:06;;;;;;;12.77;7.93;;;;;;;14.65;68.38;101251.63;4955415;29;20055;-46
2023/06/08 11:05:35;;;;;;;11.23;7.78;;;;;;;14.61;68.29;101250.72;4955305;28;20054;-46
2023/06/08 11:08:03;;;;;;;11.93;7.72;;;;;;;14.62;68.22;101238.41;4954153;29;20497;-48
2023/06/08 11:10:32;;;;;;;13.23;8.50;;;;;;;14.63;68.29;101257.56;4954121;29;20050;-44
2023/06/08 11:13:09;;;;;;;13.18;8.10;;;;;;;14.54;67.95;101251.34;4955060;29;20098;-45
2023/06/08 11:15:41;;;;;;;11.43;7.75;;;;;;;14.45;67.92;101252.69;4943782;29;20390;-45
2023/06/08 11:18:09;;;;;;;;;;;;;;;14.36;67.84;101254.84;4955008;28;20117;-47
2023/06/08 11:20:38;;;;;;;19.02;8.50;;;;;;;14.34;68.19;101246.84;4955408;29;19937;-45
2023/06/08 11:23:06;;;;;;;17.73;10.18;;;;;;;14.36;68.18;101246.47;4954860;29;20051;-44
2023/06/08 11:25:34;;;;;;;11.45;8.30;;;;;;;14.40;68.01;101242.63;4954910;29;20102;-44
2023/06/08 11:28:03;;;;;;;20.65;10.40;;;;;;;14.42;68.03;101242.28;4934898;29;20046;-45